Oslo, Norway
Current Conditions -  °F | °C
As of 1:50 AM on Tuesday 27 Jan 2015 (Local Time) from ENGM Reporting Station
Light Fog Light Fog  
Wind Chill: 23°   Ceiling: Unl
Heat Index: 23°   Visibility: 6mi
Dew Point: 21°   Wind: 2mph
Humidity: 93%   Direction: NA
Pressure: 29.71"   Gusts: NA
Location:  60.2°N, 11.08°E
Report Text: ENGM 270050Z VRB02KT 9999 4000S BCFG NSC M05/M06 Q1006
Loading
Personal Weather Stations






























Interactive Weather Map New forecast layout! Learn more

10-Day Weather Forecast

Advertisements
Track Severe Weather on mobile